Decoded Metar for CYBQ ( in ) (IATA:) | Meteo·Mobile Aviation Weather
aviador You're here:

CYBQ Decoded Metar

in
Report Time2018-10-20 08:00:00
UTC Time2018-10-20 08:23:03
Flight Rules mvfr MVFR
Wind330° at 11 Gusting to 17 kt
W.Decomp.*RWY 25: 1.9 kt HW 10.8 kt RCW
W.Rank330° ranks 4
Current wind is above 330° avg. (8.1)
Visibility9999 m
Phenomena:Light Snow
Clouds:Overcast 021 Hf
Expected CloudBase > 800 ft AGL from Temp-Dew spread
Ceiling2,100 ft
Temp-10°C
Dew Point-12°C (85% RH)
AAT-17.2°C
QNH1022 hPa
Raw Report
METAR CYBQ 200800Z AUTO 33011G17KT 300V010 9SM -SN OVC021 M10/M12 A3019 RMK SLP251=

Extra information for CYBQ:More info

Social comments